createdAt,value
2023-03-06T00:00:05.527Z,1003.34
2023-03-06T00:00:14.832Z,1003.32
2023-03-06T00:00:24.122Z,1003.36
2023-03-06T00:00:35.145Z,1003.37
2023-03-06T00:00:44.451Z,1003.32
2023-03-06T00:01:03.049Z,1003.33
2023-03-06T00:01:12.324Z,1003.32
2023-03-06T00:01:21.617Z,1003.31
2023-03-06T00:01:30.905Z,1003.30
2023-03-06T00:01:40.192Z,1003.30
2023-03-06T00:01:49.502Z,1003.25
2023-03-06T00:01:58.802Z,1003.30
2023-03-06T00:02:08.095Z,1003.28
2023-03-06T00:02:17.394Z,1003.36
2023-03-06T00:02:26.693Z,1003.30
2023-03-06T00:02:35.963Z,1003.32
2023-03-06T00:02:45.256Z,1003.22
2023-03-06T00:02:54.568Z,1003.28
2023-03-06T00:03:13.141Z,1003.38
2023-03-06T00:03:22.525Z,1003.29
2023-03-06T00:03:31.779Z,1003.30
2023-03-06T00:03:41.044Z,1003.35
2023-03-06T00:03:50.359Z,1003.32
2023-03-06T00:03:59.652Z,1003.29
2023-03-06T00:04:08.986Z,1003.33
2023-03-06T00:04:18.184Z,1003.22
2023-03-06T00:04:27.482Z,1003.22
2023-03-06T00:04:36.763Z,1003.31
2023-03-06T00:04:46.051Z,1003.28
2023-03-06T00:04:55.336Z,1003.29
2023-03-06T00:05:04.612Z,1003.25
2023-03-06T00:05:13.899Z,1003.26
2023-03-06T00:05:32.507Z,1003.25
2023-03-06T00:05:41.848Z,1003.24
2023-03-06T00:05:51.176Z,1003.30
2023-03-06T00:06:00.453Z,1003.28
2023-03-06T00:06:09.741Z,1003.22
2023-03-06T00:06:18.954Z,1003.28
2023-03-06T00:06:28.251Z,1003.29
2023-03-06T00:06:37.527Z,1003.26
2023-03-06T00:06:46.806Z,1003.25
2023-03-06T00:06:56.098Z,1003.28
2023-03-06T00:07:05.386Z,1003.22
2023-03-06T00:07:14.656Z,1003.26
2023-03-06T00:07:23.952Z,1003.23
2023-03-06T00:07:42.552Z,1003.19
2023-03-06T00:07:51.839Z,1003.24
2023-03-06T00:08:01.142Z,1003.26
2023-03-06T00:08:10.474Z,1003.25
2023-03-06T00:08:19.719Z,1003.18
2023-03-06T00:08:29.016Z,1003.20
2023-03-06T00:08:38.279Z,1003.29
2023-03-06T00:08:47.568Z,1003.21
2023-03-06T00:08:56.854Z,1003.29
2023-03-06T00:09:06.272Z,1003.18
2023-03-06T00:09:15.430Z,1003.25
2023-03-06T00:09:24.714Z,1003.18
2023-03-06T00:09:34.006Z,1003.20
2023-03-06T00:09:52.611Z,1003.20
2023-03-06T00:10:01.912Z,1003.22
2023-03-06T00:10:11.211Z,1003.27
2023-03-06T00:10:20.494Z,1003.18
2023-03-06T00:10:29.798Z,1003.19
2023-03-06T00:10:39.094Z,1003.21
2023-03-06T00:10:48.411Z,1003.17
2023-03-06T00:10:57.726Z,1003.17
2023-03-06T00:11:07.010Z,1003.21
2023-03-06T00:11:16.287Z,1003.19
2023-03-06T00:11:25.582Z,1003.18
2023-03-06T00:11:34.870Z,1003.16
2023-03-06T00:11:44.173Z,1003.22
2023-03-06T00:12:02.746Z,1003.19
2023-03-06T00:12:12.031Z,1003.21
2023-03-06T00:12:21.324Z,1003.17
2023-03-06T00:12:30.600Z,1003.18
2023-03-06T00:12:39.886Z,1003.10
2023-03-06T00:12:49.178Z,1003.05
2023-03-06T00:12:58.467Z,1003.03
2023-03-06T00:13:07.752Z,1003.12
2023-03-06T00:13:17.040Z,1003.08
2023-03-06T00:13:26.336Z,1003.14
2023-03-06T00:13:35.615Z,1003.20
2023-03-06T00:13:44.888Z,1003.13
2023-03-06T00:13:54.206Z,1003.11
2023-03-06T00:14:12.865Z,1003.09
2023-03-06T00:14:22.160Z,1003.12
2023-03-06T00:14:31.438Z,1003.10
2023-03-06T00:14:40.734Z,1003.15
2023-03-06T00:14:50.014Z,1003.14
2023-03-06T00:14:59.294Z,1003.05
2023-03-06T00:15:08.588Z,1003.15
2023-03-06T00:15:17.905Z,1003.07
2023-03-06T00:15:27.166Z,1003.11
2023-03-06T00:15:36.456Z,1003.06
2023-03-06T00:15:45.744Z,1003.08
2023-03-06T00:15:55.106Z,1003.08
2023-03-06T00:16:04.446Z,1003.08
2023-03-06T00:16:23.068Z,1003.17
2023-03-06T00:16:32.315Z,1003.12
2023-03-06T00:16:41.509Z,1003.12
2023-03-06T00:16:50.813Z,1003.12
2023-03-06T00:17:00.116Z,1003.02
2023-03-06T00:17:09.428Z,1003.02
2023-03-06T00:17:18.725Z,1003.04
2023-03-06T00:17:28.022Z,1003.03
2023-03-06T00:17:37.350Z,1003.00
2023-03-06T00:17:46.632Z,1003.11
2023-03-06T00:17:55.979Z,1003.04
2023-03-06T00:18:05.257Z,1003.11
2023-03-06T00:18:14.505Z,1003.07
2023-03-06T00:18:33.112Z,1003.08
2023-03-06T00:18:42.416Z,1003.09
2023-03-06T00:18:51.708Z,1003.09
2023-03-06T00:19:00.998Z,1003.10
2023-03-06T00:19:10.277Z,1003.01
2023-03-06T00:19:19.556Z,1003.10
2023-03-06T00:19:28.849Z,1003.03
2023-03-06T00:19:38.134Z,1003.06
2023-03-06T00:19:47.480Z,1003.10
2023-03-06T00:19:56.778Z,1003.00
2023-03-06T00:20:06.088Z,1003.04
2023-03-06T00:20:15.356Z,1003.11
2023-03-06T00:20:24.648Z,1003.10
2023-03-06T00:20:33.936Z,1003.03
2023-03-06T00:20:52.485Z,1003.01
2023-03-06T00:21:02.063Z,1003.10
2023-03-06T00:21:11.340Z,1003.07
2023-03-06T00:21:20.622Z,1003.06
2023-03-06T00:21:29.899Z,1003.04
2023-03-06T00:21:39.200Z,1003.09
2023-03-06T00:21:48.498Z,1003.07
2023-03-06T00:21:57.781Z,1003.07
2023-03-06T00:22:07.061Z,1003.07
2023-03-06T00:22:16.347Z,1002.98
2023-03-06T00:22:25.636Z,1003.00
2023-03-06T00:22:34.935Z,1003.02
2023-03-06T00:22:44.214Z,1003.03
2023-03-06T00:23:02.810Z,1003.06
2023-03-06T00:23:12.113Z,1003.01
2023-03-06T00:23:21.393Z,1003.05
2023-03-06T00:23:30.668Z,1003.09
2023-03-06T00:23:39.962Z,1003.03
2023-03-06T00:23:49.249Z,1003.02
2023-03-06T00:23:58.529Z,1003.06
2023-03-06T00:24:07.833Z,1003.00
2023-03-06T00:24:17.123Z,1002.95
2023-03-06T00:24:26.414Z,1003.02
2023-03-06T00:24:35.710Z,1003.05
2023-03-06T00:24:44.989Z,1003.00
2023-03-06T00:24:54.274Z,1003.00
2023-03-06T00:25:12.875Z,1002.97
2023-03-06T00:25:22.177Z,1003.00
2023-03-06T00:25:31.456Z,1002.99
2023-03-06T00:25:40.756Z,1003.09
2023-03-06T00:25:50.032Z,1003.01
2023-03-06T00:25:59.320Z,1003.03
2023-03-06T00:26:08.630Z,1003.03
2023-03-06T00:26:17.931Z,1002.99
2023-03-06T00:26:27.222Z,1003.00
2023-03-06T00:26:36.514Z,1003.01
2023-03-06T00:26:45.805Z,1003.02
2023-03-06T00:26:55.101Z,1003.02
2023-03-06T00:27:04.391Z,1002.97
2023-03-06T00:27:22.954Z,1002.95
2023-03-06T00:27:32.248Z,1002.91
2023-03-06T00:27:41.537Z,1002.95
2023-03-06T00:27:50.829Z,1002.90
2023-03-06T00:28:00.125Z,1002.95
2023-03-06T00:28:09.406Z,1002.82
2023-03-06T00:28:18.693Z,1002.92
2023-03-06T00:28:27.977Z,1002.92
2023-03-06T00:28:37.257Z,1002.94
2023-03-06T00:28:46.546Z,1002.92
2023-03-06T00:28:55.831Z,1002.91
2023-03-06T00:29:05.112Z,1002.89
2023-03-06T00:29:14.384Z,1002.90
2023-03-06T00:29:32.973Z,1002.93
2023-03-06T00:29:42.260Z,1002.92
2023-03-06T00:29:51.530Z,1002.89
2023-03-06T00:30:00.797Z,1002.90
2023-03-06T00:30:10.091Z,1002.90
2023-03-06T00:30:19.389Z,1002.90
2023-03-06T00:30:28.665Z,1002.86
2023-03-06T00:30:37.954Z,1002.85
2023-03-06T00:30:47.257Z,1002.83
2023-03-06T00:30:56.540Z,1002.84
2023-03-06T00:31:05.881Z,1002.82
2023-03-06T00:31:15.193Z,1002.85
2023-03-06T00:31:24.526Z,1002.93
2023-03-06T00:31:43.082Z,1002.91
2023-03-06T00:31:52.343Z,1002.89
2023-03-06T00:32:01.710Z,1002.94
2023-03-06T00:32:11.017Z,1002.86
2023-03-06T00:32:20.298Z,1002.89
2023-03-06T00:32:29.540Z,1002.92
2023-03-06T00:32:38.784Z,1002.89
2023-03-06T00:32:48.055Z,1002.87
2023-03-06T00:32:57.331Z,1002.84
2023-03-06T00:33:06.653Z,1003.00
2023-03-06T00:33:15.972Z,1002.92
2023-03-06T00:33:25.206Z,1002.90
2023-03-06T00:33:34.541Z,1002.89
2023-03-06T00:33:53.130Z,1002.91
2023-03-06T00:34:02.433Z,1002.96
2023-03-06T00:34:11.738Z,1002.95
2023-03-06T00:34:21.041Z,1002.97
2023-03-06T00:34:30.332Z,1002.96
2023-03-06T00:34:39.634Z,1002.93
2023-03-06T00:34:48.946Z,1002.85
2023-03-06T00:34:58.241Z,1002.95
2023-03-06T00:35:07.547Z,1002.92
2023-03-06T00:35:16.840Z,1002.92
2023-03-06T00:35:26.200Z,1002.94
2023-03-06T00:35:35.505Z,1002.99
2023-03-06T00:35:44.769Z,1002.95
2023-03-06T00:35:54.040Z,1002.96
2023-03-06T00:36:12.612Z,1002.95
2023-03-06T00:36:21.912Z,1002.97
2023-03-06T00:36:31.183Z,1002.98
2023-03-06T00:36:40.468Z,1002.94
2023-03-06T00:36:49.760Z,1002.94
2023-03-06T00:36:59.053Z,1002.95
2023-03-06T00:37:08.339Z,1002.93
2023-03-06T00:37:17.608Z,1002.97
2023-03-06T00:37:26.902Z,1002.97
2023-03-06T00:37:36.190Z,1002.94
2023-03-06T00:37:45.522Z,1002.97
2023-03-06T00:37:54.760Z,1002.92
2023-03-06T00:38:04.050Z,1002.96
2023-03-06T00:38:22.683Z,1002.97
2023-03-06T00:38:31.975Z,1002.98
2023-03-06T00:38:41.270Z,1002.95
2023-03-06T00:38:50.564Z,1002.94
2023-03-06T00:38:59.878Z,1003.00
2023-03-06T00:39:09.135Z,1002.88
2023-03-06T00:39:18.494Z,1002.87
2023-03-06T00:39:27.791Z,1002.89
2023-03-06T00:39:37.077Z,1002.90
2023-03-06T00:39:46.354Z,1002.95
2023-03-06T00:39:55.643Z,1002.97
2023-03-06T00:40:04.932Z,1002.89
2023-03-06T00:40:14.250Z,1002.91
2023-03-06T00:40:32.808Z,1002.93
2023-03-06T00:40:42.116Z,1002.91
2023-03-06T00:40:51.414Z,1002.94
2023-03-06T00:41:00.703Z,1002.93
2023-03-06T00:41:09.997Z,1002.91
2023-03-06T00:41:19.283Z,1002.93
2023-03-06T00:41:28.608Z,1002.93
2023-03-06T00:41:37.926Z,1002.92
2023-03-06T00:41:47.228Z,1002.90
2023-03-06T00:41:56.496Z,1002.90
2023-03-06T00:42:05.792Z,1002.90
2023-03-06T00:42:15.081Z,1002.89
2023-03-06T00:42:24.374Z,1002.93
2023-03-06T00:42:42.946Z,1002.94
2023-03-06T00:42:52.271Z,1002.89
2023-03-06T00:43:01.578Z,1002.91
2023-03-06T00:43:10.874Z,1002.84
2023-03-06T00:43:20.170Z,1002.84
2023-03-06T00:43:29.471Z,1002.86
2023-03-06T00:43:38.773Z,1002.89
2023-03-06T00:43:48.053Z,1002.89
2023-03-06T00:43:57.344Z,1002.91
2023-03-06T00:44:06.646Z,1002.92
2023-03-06T00:44:15.953Z,1002.85
2023-03-06T00:44:25.242Z,1002.94
2023-03-06T00:44:34.526Z,1002.86
2023-03-06T00:44:53.142Z,1002.94
2023-03-06T00:45:02.410Z,1002.88
2023-03-06T00:45:11.717Z,1002.86
2023-03-06T00:45:21.013Z,1002.88
2023-03-06T00:45:30.405Z,1002.89
2023-03-06T00:45:39.685Z,1002.86
2023-03-06T00:45:48.992Z,1002.84
2023-03-06T00:45:58.239Z,1002.89
2023-03-06T00:46:07.595Z,1002.88
2023-03-06T00:46:16.814Z,1002.83
2023-03-06T00:46:26.101Z,1002.88
2023-03-06T00:46:35.418Z,1002.95
2023-03-06T00:46:44.708Z,1002.88
2023-03-06T00:46:54.012Z,1002.91
2023-03-06T00:47:12.597Z,1002.94
2023-03-06T00:47:21.939Z,1002.90
2023-03-06T00:47:31.216Z,1002.90
2023-03-06T00:47:40.514Z,1002.93
2023-03-06T00:47:49.802Z,1003.00
2023-03-06T00:47:59.094Z,1002.98
2023-03-06T00:48:08.399Z,1002.91
2023-03-06T00:48:17.699Z,1002.90
2023-03-06T00:48:27.007Z,1002.90
2023-03-06T00:48:36.264Z,1002.87
2023-03-06T00:48:45.553Z,1002.90
2023-03-06T00:48:54.835Z,1002.97
2023-03-06T00:49:04.138Z,1003.00
2023-03-06T00:49:22.778Z,1002.95
2023-03-06T00:49:32.082Z,1002.92
2023-03-06T00:49:41.407Z,1002.98
2023-03-06T00:49:50.698Z,1002.95
2023-03-06T00:50:00.009Z,1002.93
2023-03-06T00:50:09.315Z,1002.92
2023-03-06T00:50:18.601Z,1002.90
2023-03-06T00:50:27.902Z,1002.99
2023-03-06T00:50:37.182Z,1002.98
2023-03-06T00:50:46.481Z,1002.91
2023-03-06T00:50:55.779Z,1002.92
2023-03-06T00:51:05.079Z,1002.99
2023-03-06T00:51:14.378Z,1002.93
2023-03-06T00:51:33.017Z,1002.92
2023-03-06T00:51:43.015Z,1002.96
2023-03-06T00:51:52.319Z,1002.95
2023-03-06T00:52:01.611Z,1002.91
2023-03-06T00:52:10.898Z,1002.93
2023-03-06T00:52:20.193Z,1002.95
2023-03-06T00:52:29.507Z,1002.93
2023-03-06T00:52:38.799Z,1002.91
2023-03-06T00:52:48.103Z,1002.98
2023-03-06T00:52:57.398Z,1002.93
2023-03-06T00:53:06.714Z,1002.93
2023-03-06T00:53:15.995Z,1002.98
2023-03-06T00:53:25.296Z,1002.91
2023-03-06T00:53:34.600Z,1002.93
2023-03-06T00:53:43.889Z,1002.94
2023-03-06T00:54:02.506Z,1002.90
2023-03-06T00:54:11.786Z,1002.90
2023-03-06T00:54:21.068Z,1002.94
2023-03-06T00:54:30.377Z,1002.89
2023-03-06T00:54:39.681Z,1002.89
2023-03-06T00:54:48.972Z,1002.90
2023-03-06T00:54:58.256Z,1002.90
2023-03-06T00:55:07.553Z,1002.98
2023-03-06T00:55:16.859Z,1002.91
2023-03-06T00:55:26.129Z,1002.85
2023-03-06T00:55:35.412Z,1002.88
2023-03-06T00:55:44.722Z,1002.90
2023-03-06T00:55:54.018Z,1002.89
2023-03-06T00:56:12.608Z,1002.97
2023-03-06T00:56:21.893Z,1002.91
2023-03-06T00:56:31.194Z,1002.84
2023-03-06T00:56:40.711Z,1002.89
2023-03-06T00:56:50.045Z,1002.89
2023-03-06T00:56:59.348Z,1002.90
2023-03-06T00:57:08.690Z,1002.88
2023-03-06T00:57:17.972Z,1002.80
2023-03-06T00:57:27.277Z,1002.84
2023-03-06T00:57:36.573Z,1002.82
2023-03-06T00:57:45.893Z,1002.88
2023-03-06T00:57:55.198Z,1002.83
2023-03-06T00:58:04.495Z,1002.84
2023-03-06T00:58:23.088Z,1002.88
2023-03-06T00:58:32.393Z,1002.87
2023-03-06T00:58:41.729Z,1002.80
2023-03-06T00:58:51.033Z,1002.86
2023-03-06T00:59:00.344Z,1002.84
2023-03-06T00:59:09.693Z,1002.85
2023-03-06T00:59:19.019Z,1002.89
2023-03-06T00:59:28.328Z,1002.83
2023-03-06T00:59:37.610Z,1002.83
2023-03-06T00:59:46.900Z,1002.87
2023-03-06T00:59:56.207Z,1002.84
2023-03-06T01:00:05.567Z,1002.86
2023-03-06T01:00:14.797Z,1002.88
2023-03-06T01:00:24.090Z,1002.80
2023-03-06T01:00:42.852Z,1002.84
2023-03-06T01:00:52.172Z,1002.82
2023-03-06T01:01:01.414Z,1002.80
2023-03-06T01:01:10.794Z,1002.85
2023-03-06T01:01:20.216Z,1002.82
2023-03-06T01:01:29.439Z,1002.86
2023-03-06T01:01:38.742Z,1002.83
2023-03-06T01:01:48.077Z,1002.82
2023-03-06T01:01:57.805Z,1002.82
2023-03-06T01:02:07.120Z,1002.82
2023-03-06T01:02:16.396Z,1002.84
2023-03-06T01:02:25.736Z,1002.86
2023-03-06T01:02:34.997Z,1002.81
2023-03-06T01:02:44.249Z,1002.81
2023-03-06T01:03:02.850Z,1002.79
2023-03-06T01:03:12.111Z,1002.81
2023-03-06T01:03:21.400Z,1002.80
2023-03-06T01:03:30.708Z,1002.88
2023-03-06T01:03:39.980Z,1002.82
2023-03-06T01:03:49.263Z,1002.77
2023-03-06T01:03:58.549Z,1002.79
2023-03-06T01:04:07.840Z,1002.80
2023-03-06T01:04:17.124Z,1002.79
2023-03-06T01:04:26.414Z,1002.85
2023-03-06T01:04:35.711Z,1002.80
2023-03-06T01:04:45.012Z,1002.85
2023-03-06T01:04:54.302Z,1002.80
2023-03-06T01:05:12.902Z,1002.79
2023-03-06T01:05:22.189Z,1002.78
2023-03-06T01:05:31.531Z,1002.79
2023-03-06T01:05:40.823Z,1002.79
2023-03-06T01:05:50.105Z,1002.75
2023-03-06T01:05:59.395Z,1002.78
2023-03-06T01:06:08.689Z,1002.78
2023-03-06T01:06:17.978Z,1002.85
2023-03-06T01:06:27.267Z,1002.77
2023-03-06T01:06:36.539Z,1002.78
2023-03-06T01:06:45.833Z,1002.78
2023-03-06T01:06:55.150Z,1002.79
2023-03-06T01:07:04.458Z,1002.77
2023-03-06T01:07:23.056Z,1002.80
2023-03-06T01:07:32.330Z,1002.81
2023-03-06T01:07:41.609Z,1002.79
2023-03-06T01:07:50.901Z,1002.80
2023-03-06T01:08:00.165Z,1002.74
2023-03-06T01:08:09.466Z,1002.73
2023-03-06T01:08:18.752Z,1002.74
2023-03-06T01:08:28.024Z,1002.75
2023-03-06T01:08:37.330Z,1002.75
2023-03-06T01:08:46.622Z,1002.69
2023-03-06T01:08:55.897Z,1002.78
2023-03-06T01:09:05.217Z,1002.74
2023-03-06T01:09:14.473Z,1002.75
2023-03-06T01:09:33.068Z,1002.75
2023-03-06T01:09:42.361Z,1002.76
2023-03-06T01:09:51.645Z,1002.82
2023-03-06T01:10:00.945Z,1002.79
2023-03-06T01:10:10.236Z,1002.79
2023-03-06T01:10:19.516Z,1002.74
2023-03-06T01:10:28.792Z,1002.78
2023-03-06T01:10:38.088Z,1002.76
2023-03-06T01:10:47.376Z,1002.74
2023-03-06T01:10:56.678Z,1002.81
2023-03-06T01:11:05.972Z,1002.79
2023-03-06T01:11:15.258Z,1002.74
2023-03-06T01:11:24.551Z,1002.74
2023-03-06T01:11:43.123Z,1002.68
2023-03-06T01:11:52.434Z,1002.76
2023-03-06T01:12:01.751Z,1002.73
2023-03-06T01:12:11.039Z,1002.69
2023-03-06T01:12:22.844Z,1002.70
2023-03-06T01:12:29.602Z,1002.68
2023-03-06T01:12:38.885Z,1002.70
2023-03-06T01:12:48.177Z,1002.77
2023-03-06T01:12:57.461Z,1002.68
2023-03-06T01:13:06.766Z,1002.74
2023-03-06T01:13:16.038Z,1002.71
2023-03-06T01:13:25.319Z,1002.74
2023-03-06T01:13:34.600Z,1002.73
2023-03-06T01:13:43.896Z,1002.71
2023-03-06T01:14:02.451Z,1002.74
2023-03-06T01:14:11.719Z,1002.68
2023-03-06T01:14:20.998Z,1002.71
2023-03-06T01:14:30.289Z,1002.75
2023-03-06T01:14:39.610Z,1002.73
2023-03-06T01:14:48.880Z,1002.69
2023-03-06T01:14:58.165Z,1002.56
2023-03-06T01:15:07.455Z,1002.65
2023-03-06T01:15:16.766Z,1002.78
2023-03-06T01:15:26.016Z,1002.70
2023-03-06T01:15:35.297Z,1002.69
2023-03-06T01:15:44.585Z,1002.70
2023-03-06T01:15:53.874Z,1002.71
2023-03-06T01:16:12.497Z,1002.63
2023-03-06T01:16:21.823Z,1002.72
2023-03-06T01:16:31.090Z,1002.70
2023-03-06T01:16:40.380Z,1002.61
2023-03-06T01:16:49.604Z,1002.63
2023-03-06T01:16:58.888Z,1002.60
2023-03-06T01:17:08.190Z,1002.65
2023-03-06T01:17:17.502Z,1002.65
2023-03-06T01:17:26.806Z,1002.65
2023-03-06T01:17:36.094Z,1002.64
2023-03-06T01:17:45.380Z,1002.61
2023-03-06T01:17:54.661Z,1002.58
2023-03-06T01:18:03.946Z,1002.64
2023-03-06T01:18:22.528Z,1002.63
2023-03-06T01:18:31.813Z,1002.62
2023-03-06T01:18:41.122Z,1002.62
2023-03-06T01:18:50.407Z,1002.58
2023-03-06T01:18:59.710Z,1002.60
2023-03-06T01:19:08.983Z,1002.66
2023-03-06T01:19:18.282Z,1002.54
2023-03-06T01:19:27.547Z,1002.66
2023-03-06T01:19:36.827Z,1002.65
2023-03-06T01:19:46.128Z,1002.61
2023-03-06T01:19:55.412Z,1002.66
2023-03-06T01:20:04.695Z,1002.60
2023-03-06T01:20:13.974Z,1002.65
2023-03-06T01:20:32.549Z,1002.54
2023-03-06T01:20:41.816Z,1002.64
2023-03-06T01:20:51.099Z,1002.56
2023-03-06T01:21:00.373Z,1002.55
2023-03-06T01:21:09.662Z,1002.60
2023-03-06T01:21:18.943Z,1002.60
2023-03-06T01:21:28.238Z,1002.61
2023-03-06T01:21:37.538Z,1002.58
2023-03-06T01:21:46.828Z,1002.59
2023-03-06T01:21:56.112Z,1002.59
2023-03-06T01:22:05.408Z,1002.62
2023-03-06T01:22:14.814Z,1002.63
2023-03-06T01:22:24.130Z,1002.56
2023-03-06T01:22:42.721Z,1002.54
2023-03-06T01:22:51.992Z,1002.63
2023-03-06T01:23:01.280Z,1002.58
2023-03-06T01:23:10.677Z,1002.57
2023-03-06T01:23:19.966Z,1002.58
2023-03-06T01:23:29.269Z,1002.60
2023-03-06T01:23:38.550Z,1002.58
2023-03-06T01:23:47.834Z,1002.58
2023-03-06T01:23:57.146Z,1002.63
2023-03-06T01:24:06.459Z,1002.54
2023-03-06T01:24:15.745Z,1002.58
2023-03-06T01:24:25.029Z,1002.52
2023-03-06T01:24:34.319Z,1002.62
2023-03-06T01:24:52.885Z,1002.65
2023-03-06T01:25:02.160Z,1002.61
2023-03-06T01:25:11.470Z,1002.57
2023-03-06T01:25:20.758Z,1002.61
2023-03-06T01:25:30.034Z,1002.52
2023-03-06T01:25:39.325Z,1002.62
2023-03-06T01:25:48.610Z,1002.63
2023-03-06T01:25:57.886Z,1002.60
2023-03-06T01:26:07.169Z,1002.47
2023-03-06T01:26:16.464Z,1002.52
2023-03-06T01:26:25.750Z,1002.58
2023-03-06T01:26:35.048Z,1002.63
2023-03-06T01:26:44.349Z,1002.58
2023-03-06T01:27:02.911Z,1002.55
2023-03-06T01:27:12.215Z,1002.62
2023-03-06T01:27:21.515Z,1002.44
2023-03-06T01:27:30.806Z,1002.61
2023-03-06T01:27:40.109Z,1002.54
2023-03-06T01:27:49.364Z,1002.60
2023-03-06T01:27:58.656Z,1002.57
2023-03-06T01:28:07.928Z,1002.52
2023-03-06T01:28:17.231Z,1002.54
2023-03-06T01:28:26.503Z,1002.56
2023-03-06T01:28:35.787Z,1002.57
2023-03-06T01:28:45.073Z,1002.58
2023-03-06T01:28:54.355Z,1002.59
2023-03-06T01:29:12.930Z,1002.53
2023-03-06T01:29:22.227Z,1002.57
2023-03-06T01:29:31.507Z,1002.59
2023-03-06T01:29:40.808Z,1002.56
2023-03-06T01:29:50.088Z,1002.62
2023-03-06T01:29:59.365Z,1002.55
2023-03-06T01:30:08.665Z,1002.56
2023-03-06T01:30:17.948Z,1002.55
2023-03-06T01:30:27.240Z,1002.54
2023-03-06T01:30:36.540Z,1002.54
2023-03-06T01:30:45.810Z,1002.59
2023-03-06T01:30:55.092Z,1002.59
2023-03-06T01:31:04.387Z,1002.59
2023-03-06T01:31:23.022Z,1002.62
2023-03-06T01:31:32.310Z,1002.57
2023-03-06T01:31:41.611Z,1002.56
2023-03-06T01:31:50.904Z,1002.56
2023-03-06T01:32:00.310Z,1002.58
2023-03-06T01:32:09.559Z,1002.54
2023-03-06T01:32:18.796Z,1002.53
2023-03-06T01:32:28.144Z,1002.52
2023-03-06T01:32:37.430Z,1002.54
2023-03-06T01:32:46.672Z,1002.58
2023-03-06T01:32:55.970Z,1002.53
2023-03-06T01:33:05.258Z,1002.51
2023-03-06T01:33:14.559Z,1002.51
2023-03-06T01:33:33.129Z,1002.52
2023-03-06T01:33:42.441Z,1002.51
2023-03-06T01:33:51.695Z,1002.56
2023-03-06T01:34:00.978Z,1002.57
2023-03-06T01:34:10.280Z,1002.51
2023-03-06T01:34:19.570Z,1002.53
2023-03-06T01:34:28.854Z,1002.50
2023-03-06T01:34:38.148Z,1002.55
2023-03-06T01:34:47.445Z,1002.50
2023-03-06T01:34:56.722Z,1002.49
2023-03-06T01:35:06.011Z,1002.51
2023-03-06T01:35:15.310Z,1002.55
2023-03-06T01:35:24.601Z,1002.54
2023-03-06T01:35:33.892Z,1002.49
2023-03-06T01:35:52.509Z,1002.53
2023-03-06T01:36:01.732Z,1002.50
2023-03-06T01:36:11.016Z,1002.51
2023-03-06T01:36:20.294Z,1002.47
2023-03-06T01:36:29.645Z,1002.55
2023-03-06T01:36:38.948Z,1002.46
2023-03-06T01:36:48.261Z,1002.51
2023-03-06T01:36:57.538Z,1002.50
2023-03-06T01:37:06.819Z,1002.52
2023-03-06T01:37:16.106Z,1002.45
2023-03-06T01:37:25.410Z,1002.47
2023-03-06T01:37:34.748Z,1002.45
2023-03-06T01:37:44.042Z,1002.47
2023-03-06T01:38:02.618Z,1002.47
2023-03-06T01:38:11.899Z,1002.52
2023-03-06T01:38:21.182Z,1002.49
2023-03-06T01:38:30.490Z,1002.44
2023-03-06T01:38:39.763Z,1002.44
2023-03-06T01:38:49.053Z,1002.43
2023-03-06T01:38:58.337Z,1002.47
2023-03-06T01:39:07.662Z,1002.45
2023-03-06T01:39:16.944Z,1002.48
2023-03-06T01:39:26.265Z,1002.49
2023-03-06T01:39:35.571Z,1002.49
2023-03-06T01:39:44.867Z,1002.44
2023-03-06T01:39:54.168Z,1002.40
2023-03-06T01:40:12.790Z,1002.43
2023-03-06T01:40:22.072Z,1002.44
2023-03-06T01:40:31.356Z,1002.44
2023-03-06T01:40:40.641Z,1002.40
2023-03-06T01:40:49.942Z,1002.40
2023-03-06T01:40:59.362Z,1002.42
2023-03-06T01:41:08.644Z,1002.45
2023-03-06T01:41:17.964Z,1002.42
2023-03-06T01:41:27.271Z,1002.47
2023-03-06T01:41:36.569Z,1002.45
2023-03-06T01:41:45.870Z,1002.48
2023-03-06T01:41:55.175Z,1002.45
2023-03-06T01:42:04.487Z,1002.45
2023-03-06T01:42:23.123Z,1002.50
2023-03-06T01:42:32.392Z,1002.41
2023-03-06T01:42:41.708Z,1002.41
2023-03-06T01:42:50.984Z,1002.35
2023-03-06T01:43:00.270Z,1002.42
2023-03-06T01:43:09.556Z,1002.47
2023-03-06T01:43:18.838Z,1002.43
2023-03-06T01:43:28.121Z,1002.42
2023-03-06T01:43:37.411Z,1002.44
2023-03-06T01:43:46.689Z,1002.37
2023-03-06T01:43:56.035Z,1002.43
2023-03-06T01:44:05.273Z,1002.43
2023-03-06T01:44:14.574Z,1002.43
2023-03-06T01:44:33.161Z,1002.39
2023-03-06T01:44:42.437Z,1002.37
2023-03-06T01:44:51.732Z,1002.42
2023-03-06T01:45:01.025Z,1002.43
2023-03-06T01:45:10.301Z,1002.40
2023-03-06T01:45:19.592Z,1002.40
2023-03-06T01:45:29.073Z,1002.43
2023-03-06T01:45:38.196Z,1002.39
2023-03-06T01:45:47.445Z,1002.41
2023-03-06T01:45:56.726Z,1002.40
2023-03-06T01:46:06.006Z,1002.42
2023-03-06T01:46:15.328Z,1002.38
2023-03-06T01:46:24.558Z,1002.36
2023-03-06T01:46:33.899Z,1002.38
2023-03-06T01:46:52.495Z,1002.41
2023-03-06T01:47:01.836Z,1002.38
2023-03-06T01:47:11.138Z,1002.37
2023-03-06T01:47:20.442Z,1002.35
2023-03-06T01:47:29.764Z,1002.36
2023-03-06T01:47:39.081Z,1002.39
2023-03-06T01:47:48.365Z,1002.43
2023-03-06T01:47:57.641Z,1002.35
2023-03-06T01:48:06.937Z,1002.32
2023-03-06T01:48:16.228Z,1002.33
2023-03-06T01:48:25.508Z,1002.37
2023-03-06T01:48:34.808Z,1002.33
2023-03-06T01:48:44.104Z,1002.33
2023-03-06T01:49:02.698Z,1002.34
2023-03-06T01:49:11.998Z,1002.36
2023-03-06T01:49:21.289Z,1002.32
2023-03-06T01:49:30.573Z,1002.38
2023-03-06T01:49:39.861Z,1002.34
2023-03-06T01:49:49.152Z,1002.39
2023-03-06T01:49:58.432Z,1002.43
2023-03-06T01:50:07.765Z,1002.37
2023-03-06T01:50:17.062Z,1002.40
2023-03-06T01:50:26.376Z,1002.44
2023-03-06T01:50:35.661Z,1002.42
2023-03-06T01:50:44.947Z,1002.47
2023-03-06T01:50:54.253Z,1002.46
2023-03-06T01:51:12.852Z,1002.37
2023-03-06T01:51:22.167Z,1002.42
2023-03-06T01:51:31.468Z,1002.43
2023-03-06T01:51:40.765Z,1002.41
2023-03-06T01:51:50.062Z,1002.39
2023-03-06T01:51:59.358Z,1002.36
2023-03-06T01:52:08.660Z,1002.42
2023-03-06T01:52:17.999Z,1002.38
2023-03-06T01:52:27.315Z,1002.39
2023-03-06T01:52:36.622Z,1002.36
2023-03-06T01:52:45.906Z,1002.40
2023-03-06T01:52:55.201Z,1002.37
2023-03-06T01:53:04.494Z,1002.44
2023-03-06T01:53:23.077Z,1002.41
2023-03-06T01:53:32.375Z,1002.42
2023-03-06T01:53:41.686Z,1002.42
2023-03-06T01:53:50.976Z,1002.44
2023-03-06T01:54:00.273Z,1002.40
2023-03-06T01:54:09.563Z,1002.42
2023-03-06T01:54:18.849Z,1002.38
2023-03-06T01:54:28.173Z,1002.41
2023-03-06T01:54:37.482Z,1002.37
2023-03-06T01:54:46.781Z,1002.40
2023-03-06T01:54:56.096Z,1002.45
2023-03-06T01:55:05.385Z,1002.45
2023-03-06T01:55:14.668Z,1002.45
2023-03-06T01:55:23.952Z,1002.46
2023-03-06T01:55:42.535Z,1002.47
2023-03-06T01:55:51.840Z,1002.44
2023-03-06T01:56:01.151Z,1002.42
2023-03-06T01:56:10.474Z,1002.40
2023-03-06T01:56:19.768Z,1002.45
2023-03-06T01:56:29.051Z,1002.42
2023-03-06T01:56:38.345Z,1002.42
2023-03-06T01:56:47.717Z,1002.40
2023-03-06T01:56:57.011Z,1002.41
2023-03-06T01:57:06.314Z,1002.45
2023-03-06T01:57:15.600Z,1002.46
2023-03-06T01:57:24.887Z,1002.39
2023-03-06T01:57:34.180Z,1002.40
2023-03-06T01:57:52.847Z,1002.39
2023-03-06T01:58:02.149Z,1002.39
2023-03-06T01:58:11.451Z,1002.38
2023-03-06T01:58:20.750Z,1002.41
2023-03-06T01:58:30.044Z,1002.37
2023-03-06T01:58:39.341Z,1002.37
2023-03-06T01:58:48.681Z,1002.35
2023-03-06T01:58:57.991Z,1002.34
2023-03-06T01:59:07.285Z,1002.36
2023-03-06T01:59:16.587Z,1002.37
2023-03-06T01:59:25.865Z,1002.40
2023-03-06T01:59:35.170Z,1002.35
2023-03-06T01:59:44.457Z,1002.36
2023-03-06T02:00:03.033Z,1002.32
2023-03-06T02:00:12.378Z,1002.34
2023-03-06T02:00:21.750Z,1002.42
2023-03-06T02:00:31.058Z,1002.32
2023-03-06T02:00:40.355Z,1002.33
2023-03-06T02:00:49.708Z,1002.32
2023-03-06T02:00:59.055Z,1002.35